Time;durP1;ratioP1;P1;durP2;ratioP2;P2;SDS_P1;SDS_P2;PMS_P1;PMS_P2;Temp;Humidity;BMP_temperature;BMP_pressure;BME280_temperature;BME280_humidity;BME280_pressure;Samples;Min_cycle;Max_cycle;Signal;HPM_P1;HPM_P2
2022/05/14 00:01:51;;;;;;;;;;;11.70;99.90;;;;;;5033185;28;19936;-62
2022/05/14 00:04:16;;;;;;;;;;;11.40;99.90;;;;;;5035111;28;19917;-62
2022/05/14 00:06:42;;;;;;;;;;;11.20;99.90;;;;;;5038630;28;19913;-62
2022/05/14 00:09:08;;;;;;;;;;;11.00;99.90;;;;;;5040768;28;19920;-63
2022/05/14 00:14:26;;;;;;;;;;;11.00;99.90;;;;;;5046973;28;19991;-62
2022/05/14 00:16:52;;;;;;;;;;;10.90;99.90;;;;;;5038027;28;20309;-62
2022/05/14 00:19:17;;;;;;;;;;;11.00;99.90;;;;;;5033134;28;19913;-62
2022/05/14 00:21:43;;;;;;;;;;;10.80;99.90;;;;;;5032995;28;19913;-62
2022/05/14 00:24:09;;;;;;;;;;;10.70;99.90;;;;;;5036202;28;19917;-62
2022/05/14 00:26:35;;;;;;;;;;;10.50;99.90;;;;;;5037177;28;19913;-62
2022/05/14 00:29:02;;;;;;;;;;;10.40;99.90;;;;;;5032981;28;19913;-63
2022/05/14 00:31:28;;;;;;;;;;;10.50;99.90;;;;;;5036154;28;19921;-62
2022/05/14 00:33:54;;;;;;;;;;;10.40;99.90;;;;;;5036556;28;20221;-62
2022/05/14 00:36:19;;;;;;;;;;;10.30;99.90;;;;;;5038550;28;20890;-62
2022/05/14 00:38:45;;;;;;;;;;;10.60;99.90;;;;;;5037757;28;19975;-62
2022/05/14 00:41:10;;;;;;;;;;;10.60;99.90;;;;;;5042309;28;20344;-62
2022/05/14 00:43:53;;;;;;;;;;;10.60;99.90;;;;;;5042559;28;20381;-62
2022/05/14 00:46:21;;;;;;;;;;;10.60;99.90;;;;;;5036162;28;20503;-62
2022/05/14 00:48:48;;;;;;;;;;;10.60;99.90;;;;;;5035352;28;20012;-62
2022/05/14 00:51:15;;;;;;;;;;;10.40;99.90;;;;;;5035532;28;19923;-62
2022/05/14 00:53:44;;;;;;;;;;;10.40;99.90;;;;;;5036774;28;20296;-62
2022/05/14 00:56:12;;;;;;;;;;;10.60;99.90;;;;;;5042525;28;19909;-62
2022/05/14 00:58:45;;;;;;;;;;;10.70;99.90;;;;;;5041773;28;19940;-62
2022/05/14 01:01:11;;;;;;;;;;;10.80;99.90;;;;;;5030075;28;20364;-62
2022/05/14 01:03:37;;;;;;;;;;;11.00;99.90;;;;;;5034080;28;19917;-62
2022/05/14 01:06:04;;;;;;;;;;;11.10;99.90;;;;;;5034575;28;19913;-62
2022/05/14 01:08:30;;;;;;;;;;;10.90;99.90;;;;;;5041908;28;19919;-62
2022/05/14 01:10:56;;;;;;;;;;;10.60;99.90;;;;;;5039915;28;20196;-62
2022/05/14 01:13:21;;;;;;;;;;;10.50;99.90;;;;;;5036668;28;19917;-62
2022/05/14 01:15:50;;;;;;;;;;;10.50;99.90;;;;;;5037136;28;20351;-62
2022/05/14 01:18:17;;;;;;;;;;;10.60;99.90;;;;;;5034405;28;19912;-62
2022/05/14 01:20:47;;;;;;;;;;;10.80;99.90;;;;;;5035852;28;19919;-62
2022/05/14 01:23:21;;;;;;;;;;;11.00;99.90;;;;;;5037563;28;20011;-62
2022/05/14 01:28:49;;;;;;;;;;;10.90;99.90;;;;;;5034451;28;20227;-62
2022/05/14 01:31:15;;;;;;;;;;;10.60;99.90;;;;;;5037229;28;19920;-62
2022/05/14 01:33:40;;;;;;;;;;;10.40;99.90;;;;;;5034286;28;19971;-62
2022/05/14 01:36:07;;;;;;;;;;;10.40;99.90;;;;;;5039312;28;19908;-62
2022/05/14 01:38:33;;;;;;;;;;;10.50;99.90;;;;;;5044657;28;19913;-62
2022/05/14 01:40:58;;;;;;;;;;;10.50;99.90;;;;;;5053296;28;20530;-62
2022/05/14 01:43:24;;;;;;;;;;;10.40;99.90;;;;;;5036784;28;20285;-62
2022/05/14 01:45:49;;;;;;;;;;;10.20;99.90;;;;;;5037645;28;19919;-62
2022/05/14 01:48:15;;;;;;;;;;;10.10;99.90;;;;;;5042379;28;19919;-63
2022/05/14 01:50:41;;;;;;;;;;;10.00;99.90;;;;;;5036991;28;19916;-62
2022/05/14 01:53:07;;;;;;;;;;;9.80;99.90;;;;;;5036292;28;20292;-62
2022/05/14 01:55:33;;;;;;;;;;;9.70;99.90;;;;;;5038090;28;19912;-62
2022/05/14 01:57:58;;;;;;;;;;;9.50;99.90;;;;;;5033124;28;20012;-62
2022/05/14 02:00:24;;;;;;;;;;;9.50;99.90;;;;;;5038997;28;19999;-62
2022/05/14 02:02:49;;;;;;;;;;;9.60;99.90;;;;;;5040746;28;20586;-62
2022/05/14 02:05:16;;;;;;;;;;;9.80;99.90;;;;;;5042632;28;19920;-62
2022/05/14 02:07:41;;;;;;;;;;;9.70;99.90;;;;;;5040304;28;19919;-62
2022/05/14 02:10:07;;;;;;;;;;;9.80;99.90;;;;;;5049909;28;19912;-62
2022/05/14 02:12:33;;;;;;;;;;;9.80;99.90;;;;;;5041021;28;19921;-62
2022/05/14 02:14:58;;;;;;;;;;;9.70;99.90;;;;;;5047658;28;19920;-62
2022/05/14 02:17:24;;;;;;;;;;;9.50;99.90;;;;;;5042626;28;19919;-62
2022/05/14 02:19:50;;;;;;;;;;;9.40;99.90;;;;;;5031836;28;20260;-62
2022/05/14 02:22:15;;;;;;;;;;;9.30;99.90;;;;;;5040983;28;20368;-62
2022/05/14 02:24:41;;;;;;;;;;;9.20;99.90;;;;;;5041382;28;19913;-62
2022/05/14 02:27:06;;;;;;;;;;;9.10;99.90;;;;;;5038404;28;19909;-62
2022/05/14 02:29:50;;;;;;;;;;;9.20;99.90;;;;;;5037923;28;20011;-62
2022/05/14 02:32:16;;;;;;;;;;;9.30;99.90;;;;;;5034583;28;19936;-62
2022/05/14 02:34:42;;;;;;;;;;;9.20;99.90;;;;;;5031152;28;19956;-62
2022/05/14 02:37:07;;;;;;;;;;;9.10;99.90;;;;;;5039439;28;19913;-62
2022/05/14 02:39:33;;;;;;;;;;;9.00;99.90;;;;;;5040097;28;19913;-62
2022/05/14 02:41:58;;;;;;;;;;;8.90;99.90;;;;;;5033728;28;20163;-62
2022/05/14 02:44:24;;;;;;;;;;;8.90;99.90;;;;;;5036597;28;20003;-62
2022/05/14 02:46:49;;;;;;;;;;;8.80;99.90;;;;;;5034611;28;19964;-62
2022/05/14 02:49:15;;;;;;;;;;;8.70;99.90;;;;;;5043725;28;19912;-62
2022/05/14 02:51:40;;;;;;;;;;;8.70;99.90;;;;;;5035831;28;20325;-62
2022/05/14 02:54:06;;;;;;;;;;;8.70;99.90;;;;;;5032285;28;20289;-62
2022/05/14 02:56:31;;;;;;;;;;;8.70;99.90;;;;;;5043487;28;19909;-62
2022/05/14 02:59:09;;;;;;;;;;;8.70;99.90;;;;;;5059573;28;20360;-63
2022/05/14 03:01:36;;;;;;;;;;;8.70;99.90;;;;;;5043263;28;20711;-63
2022/05/14 03:04:02;;;;;;;;;;;8.60;99.90;;;;;;5045206;28;20004;-63
2022/05/14 03:06:28;;;;;;;;;;;8.70;99.90;;;;;;5042122;28;20004;-62
2022/05/14 03:08:54;;;;;;;;;;;8.70;99.90;;;;;;5047347;28;19960;-62
2022/05/14 03:11:20;;;;;;;;;;;8.60;99.90;;;;;;5045069;28;20766;-63
2022/05/14 03:13:45;;;;;;;;;;;8.70;99.90;;;;;;5041475;28;19921;-62
2022/05/14 03:16:11;;;;;;;;;;;8.60;99.90;;;;;;5038821;28;19913;-62
2022/05/14 03:18:37;;;;;;;;;;;8.50;99.90;;;;;;5049254;28;19912;-62
2022/05/14 03:21:02;;;;;;;;;;;8.50;99.90;;;;;;5031719;28;19913;-62
2022/05/14 03:23:28;;;;;;;;;;;8.50;99.90;;;;;;5035270;28;19917;-62
2022/05/14 03:25:54;;;;;;;;;;;8.50;99.90;;;;;;5040019;28;20679;-62
2022/05/14 03:28:19;;;;;;;;;;;8.50;99.90;;;;;;5054660;28;20030;-62
2022/05/14 03:30:45;;;;;;;;;;;8.60;99.90;;;;;;5037467;28;19921;-62
2022/05/14 03:33:10;;;;;;;;;;;8.80;99.90;;;;;;5041282;28;20883;-62
2022/05/14 03:35:36;;;;;;;;;;;9.00;99.90;;;;;;5038567;28;19970;-62
2022/05/14 03:38:01;;;;;;;;;;;9.20;99.90;;;;;;5044861;28;19919;-60
2022/05/14 03:40:27;;;;;;;;;;;9.40;99.90;;;;;;5045292;28;20309;-62
2022/05/14 03:42:52;;;;;;;;;;;9.50;99.90;;;;;;5039535;28;20011;-62
2022/05/14 03:45:17;;;;;;;;;;;9.40;99.90;;;;;;5039679;28;20345;-62
2022/05/14 03:47:43;;;;;;;;;;;9.50;99.90;;;;;;5046225;28;19913;-62
2022/05/14 03:50:09;;;;;;;;;;;9.60;99.90;;;;;;5036299;28;19917;-62
2022/05/14 03:52:34;;;;;;;;;;;9.70;99.90;;;;;;5033065;28;20376;-62
2022/05/14 03:54:59;;;;;;;;;;;9.80;99.90;;;;;;5041681;28;19913;-62
2022/05/14 03:57:25;;;;;;;;;;;9.80;99.90;;;;;;5042070;28;20012;-62
2022/05/14 03:59:50;;;;;;;;;;;9.80;99.90;;;;;;5043775;28;19919;-62
2022/05/14 04:02:17;;;;;;;;;;;9.70;99.90;;;;;;5036385;28;20337;-62
2022/05/14 04:04:43;;;;;;;;;;;9.70;99.90;;;;;;5033414;28;19984;-62
2022/05/14 04:07:10;;;;;;;;;;;9.80;99.90;;;;;;5038827;28;19999;-62
2022/05/14 04:09:35;;;;;;;;;;;9.80;99.90;;;;;;5034536;28;19960;-62
2022/05/14 04:12:01;;;;;;;;;;;9.90;99.90;;;;;;5040410;28;19920;-62
2022/05/14 04:14:27;;;;;;;;;;;9.80;99.90;;;;;;5031865;28;19913;-62
2022/05/14 04:16:52;;;;;;;;;;;9.80;99.90;;;;;;5032905;28;20024;-62
2022/05/14 04:19:20;;;;;;;;;;;9.80;99.90;;;;;;5039049;28;19909;-62
2022/05/14 04:21:46;;;;;;;;;;;9.70;99.90;;;;;;5038088;28;20536;-62
2022/05/14 04:24:12;;;;;;;;;;;9.90;99.90;;;;;;5038000;28;19971;-62
2022/05/14 04:26:38;;;;;;;;;;;10.10;99.90;;;;;;5048117;28;20258;-62
2022/05/14 04:29:03;;;;;;;;;;;10.10;99.90;;;;;;5030891;28;19916;-62
2022/05/14 04:31:29;;;;;;;;;;;10.10;99.90;;;;;;5041697;28;20043;-62
2022/05/14 04:33:55;;;;;;;;;;;10.20;99.90;;;;;;5038299;28;19921;-61
2022/05/14 04:36:21;;;;;;;;;;;10.30;99.90;;;;;;5028952;28;20030;-62
2022/05/14 04:38:46;;;;;;;;;;;10.40;99.90;;;;;;5038523;28;19924;-62
2022/05/14 04:41:12;;;;;;;;;;;10.40;99.90;;;;;;5041901;28;19913;-62
2022/05/14 04:43:37;;;;;;;;;;;10.50;99.90;;;;;;5037494;28;20481;-62
2022/05/14 04:46:07;;;;;;;;;;;10.50;99.90;;;;;;5049319;28;19913;-62
2022/05/14 04:48:34;;;;;;;;;;;10.60;99.90;;;;;;5037566;28;20006;-62
2022/05/14 04:50:59;;;;;;;;;;;10.50;99.90;;;;;;5038534;28;20308;-61
2022/05/14 04:53:24;;;;;;;;;;;10.70;99.90;;;;;;5032408;28;19917;-61
2022/05/14 04:55:50;;;;;;;;;;;10.60;99.90;;;;;;5043509;28;20458;-61
2022/05/14 04:58:15;;;;;;;;;;;10.70;99.90;;;;;;5041002;28;19916;-62
2022/05/14 05:00:41;;;;;;;;;;;10.80;99.90;;;;;;5037019;28;19909;-62
2022/05/14 05:03:22;;;;;;;;;;;10.90;99.90;;;;;;5038389;28;19958;-61
2022/05/14 05:05:52;;;;;;;;;;;11.20;99.90;;;;;;5036533;28;19974;-62
2022/05/14 05:08:18;;;;;;;;;;;11.30;99.90;;;;;;5039355;28;19913;-62
2022/05/14 05:10:44;;;;;;;;;;;11.40;99.90;;;;;;5043767;28;19923;-62
2022/05/14 05:13:11;;;;;;;;;;;11.50;99.90;;;;;;5035993;28;19921;-62
2022/05/14 05:15:36;;;;;;;;;;;11.60;99.90;;;;;;5043309;28;19919;-61
2022/05/14 05:18:02;;;;;;;;;;;11.90;99.90;;;;;;5043186;28;20284;-62
2022/05/14 05:20:27;;;;;;;;;;;11.90;99.90;;;;;;5037970;28;19920;-62
2022/05/14 05:22:53;;;;;;;;;;;12.00;99.90;;;;;;5036314;28;19913;-62
2022/05/14 05:25:18;;;;;;;;;;;12.10;99.90;;;;;;5041676;28;19916;-62
2022/05/14 05:27:44;;;;;;;;;;;12.10;99.90;;;;;;5040128;28;20361;-62
2022/05/14 05:30:09;;;;;;;;;;;12.10;99.90;;;;;;5030547;28;19996;-62
2022/05/14 05:32:35;;;;;;;;;;;12.20;99.90;;;;;;5042048;28;19980;-61
2022/05/14 05:35:01;;;;;;;;;;;12.20;99.90;;;;;;5035245;28;19920;-61
2022/05/14 05:37:26;;;;;;;;;;;12.30;99.90;;;;;;5039294;28;20631;-61
2022/05/14 05:39:52;;;;;;;;;;;12.30;99.90;;;;;;5034930;28;19932;-61
2022/05/14 05:42:17;;;;;;;;;;;12.20;99.90;;;;;;5039959;28;20007;-62
2022/05/14 05:44:42;;;;;;;;;;;12.30;99.90;;;;;;5035124;28;20388;-61
2022/05/14 05:47:08;;;;;;;;;;;12.30;99.90;;;;;;5032938;28;19917;-62
2022/05/14 05:49:34;;;;;;;;;;;12.40;99.90;;;;;;5030127;28;19913;-62
2022/05/14 05:52:00;;;;;;;;;;;12.40;99.90;;;;;;5031267;28;19956;-62
2022/05/14 05:57:09;;;;;;;;;;;12.40;99.90;;;;;;5042664;28;20327;-62
2022/05/14 05:59:34;;;;;;;;;;;12.40;99.90;;;;;;5042326;28;19913;-61
2022/05/14 06:02:00;;;;;;;;;;;12.40;99.90;;;;;;5034035;28;19914;-62
2022/05/14 06:04:26;;;;;;;;;;;12.40;99.90;;;;;;5038506;28;19935;-61
2022/05/14 06:06:51;;;;;;;;;;;12.40;99.90;;;;;;5037646;28;19956;-62
2022/05/14 06:09:18;;;;;;;;;;;12.50;99.90;;;;;;5038445;28;19920;-61
2022/05/14 06:11:44;;;;;;;;;;;12.60;99.90;;;;;;5045129;28;19921;-61
2022/05/14 06:14:10;;;;;;;;;;;12.50;99.90;;;;;;5033816;28;19924;-62
2022/05/14 06:16:35;;;;;;;;;;;12.50;99.90;;;;;;5039732;28;19948;-62
2022/05/14 06:19:01;;;;;;;;;;;12.60;99.90;;;;;;5034604;28;20083;-61
2022/05/14 06:21:27;;;;;;;;;;;12.70;99.90;;;;;;5047497;28;19913;-62
2022/05/14 06:23:53;;;;;;;;;;;12.80;99.90;;;;;;5034071;28;19913;-62
2022/05/14 06:26:19;;;;;;;;;;;12.90;99.90;;;;;;5033817;28;19921;-62
2022/05/14 06:28:44;;;;;;;;;;;13.00;99.90;;;;;;5036919;28;19920;-61
2022/05/14 06:31:10;;;;;;;;;;;13.00;99.90;;;;;;5036275;28;20381;-61
2022/05/14 06:33:35;;;;;;;;;;;13.00;99.90;;;;;;5043020;28;19920;-62
2022/05/14 06:36:01;;;;;;;;;;;13.20;99.90;;;;;;5038707;28;19913;-62
2022/05/14 06:38:29;;;;;;;;;;;13.30;99.90;;;;;;5036133;28;20011;-63
2022/05/14 06:40:55;;;;;;;;;;;13.40;99.90;;;;;;5031577;28;20267;-62
2022/05/14 06:43:21;;;;;;;;;;;13.40;99.90;;;;;;5054688;28;19917;-62
2022/05/14 06:45:46;;;;;;;;;;;13.60;99.90;;;;;;5040818;28;19934;-61
2022/05/14 06:48:12;;;;;;;;;;;13.70;99.90;;;;;;5038102;28;19913;-61
2022/05/14 06:50:41;;;;;;;;;;;13.80;99.90;;;;;;5037940;28;19913;-62
2022/05/14 06:53:07;;;;;;;;;;;13.80;99.90;;;;;;5031640;28;20202;-62
2022/05/14 06:55:35;;;;;;;;;;;13.70;99.90;;;;;;5037495;28;19927;-62
2022/05/14 06:58:00;;;;;;;;;;;13.90;99.90;;;;;;5045255;28;19908;-62
2022/05/14 07:00:26;;;;;;;;;;;13.90;99.90;;;;;;5047723;28;20016;-62
2022/05/14 07:06:37;;;;;;;;;;;14.00;99.90;;;;;;5033357;28;19913;-62
2022/05/14 07:08:22;;;;;;;;;;;13.70;99.90;;;;;;5040174;28;20015;-62
2022/05/14 07:10:48;;;;;;;;;;;13.70;99.90;;;;;;5035995;28;19999;-62
2022/05/14 07:13:13;;;;;;;;;;;13.70;99.90;;;;;;5041710;28;20143;-61
2022/05/14 07:15:39;;;;;;;;;;;14.00;99.90;;;;;;5041041;28;20333;-62
2022/05/14 07:18:04;;;;;;;;;;;14.00;99.90;;;;;;5045949;28;20070;-61
2022/05/14 07:20:30;;;;;;;;;;;14.10;99.90;;;;;;5040681;28;20378;-62
2022/05/14 07:22:55;;;;;;;;;;;14.30;99.90;;;;;;5043171;28;20305;-62
2022/05/14 07:25:21;;;;;;;;;;;14.40;99.90;;;;;;5044980;28;19963;-62
2022/05/14 07:27:46;;;;;;;;;;;14.50;99.90;;;;;;5037621;28;20328;-62
2022/05/14 07:30:12;;;;;;;;;;;14.60;99.90;;;;;;5035098;28;19924;-62
2022/05/14 07:32:37;;;;;;;;;;;14.80;99.90;;;;;;5038724;28;20078;-62
2022/05/14 07:35:03;;;;;;;;;;;15.00;99.90;;;;;;5048909;28;19954;-62
2022/05/14 07:37:33;;;;;;;;;;;15.10;99.90;;;;;;5047126;28;19931;-62
2022/05/14 07:40:01;;;;;;;;;;;15.10;99.90;;;;;;5037554;28;19912;-62
2022/05/14 07:42:30;;;;;;;;;;;15.20;99.90;;;;;;5044310;28;19991;-62
2022/05/14 07:44:57;;;;;;;;;;;15.30;99.90;;;;;;5044625;28;20011;-61
2022/05/14 07:47:23;;;;;;;;;;;15.40;99.90;;;;;;5040818;28;19963;-62
2022/05/14 07:49:49;;;;;;;;;;;15.30;99.90;;;;;;5037786;28;20002;-62
2022/05/14 07:52:16;;;;;;;;;;;15.50;99.90;;;;;;5035542;28;20459;-62
2022/05/14 07:54:41;;;;;;;;;;;15.50;99.90;;;;;;5037524;28;19984;-62
2022/05/14 07:57:07;;;;;;;;;;;15.70;99.90;;;;;;5040228;28;19936;-62
2022/05/14 07:59:34;;;;;;;;;;;15.70;99.90;;;;;;5032670;28;19913;-62
2022/05/14 08:02:00;;;;;;;;;;;15.60;99.90;;;;;;5030457;28;19913;-62
2022/05/14 08:04:25;;;;;;;;;;;15.80;99.90;;;;;;5049166;28;19920;-62
2022/05/14 08:06:51;;;;;;;;;;;16.00;99.90;;;;;;5034010;28;19965;-62
2022/05/14 08:09:16;;;;;;;;;;;16.20;99.90;;;;;;5034715;28;19912;-62
2022/05/14 08:11:42;;;;;;;;;;;16.70;99.90;;;;;;5032374;28;20288;-61
2022/05/14 08:14:08;;;;;;;;;;;17.30;99.90;;;;;;5031621;28;19921;-61
2022/05/14 08:16:34;;;;;;;;;;;17.40;99.90;;;;;;5032570;28;19920;-62
2022/05/14 08:19:00;;;;;;;;;;;17.60;99.90;;;;;;5031992;28;20019;-62
2022/05/14 08:26:54;;;;;;;;;;;18.80;99.90;;;;;;5034019;28;19919;-62
2022/05/14 08:29:20;;;;;;;;;;;19.20;99.90;;;;;;5029979;28;20007;-62
2022/05/14 08:31:45;;;;;;;;;;;19.10;99.90;;;;;;5029505;28;20000;-62
2022/05/14 08:34:13;;;;;;;;;;;19.20;99.90;;;;;;5032906;28;20280;-62
2022/05/14 08:36:38;;;;;;;;;;;19.80;99.90;;;;;;5029961;28;20325;-62
2022/05/14 08:39:04;;;;;;;;;;;20.40;99.90;;;;;;5036468;28;20023;-62
2022/05/14 08:41:31;;;;;;;;;;;20.90;98.60;;;;;;5039355;28;19921;-62
2022/05/14 08:43:59;;;;;;;;;;;21.20;97.40;;;;;;5045626;28;19966;-62
2022/05/14 08:46:25;;;;;;;;;;;20.60;97.30;;;;;;5039764;28;19956;-62
2022/05/14 08:48:52;;;;;;;;;;;20.50;98.20;;;;;;5032206;28;20082;-62
2022/05/14 08:51:22;;;;;;;;;;;20.50;98.10;;;;;;5028691;28;20003;-62
2022/05/14 08:53:49;;;;;;;;;;;21.30;97.60;;;;;;5035206;28;20388;-62
2022/05/14 08:56:21;;;;;;;;;;;22.10;96.60;;;;;;5037612;28;20400;-62
2022/05/14 08:59:05;;;;;;;;;;;22.60;95.50;;;;;;5034897;28;19998;-62
2022/05/14 09:01:36;;;;;;;;;;;22.30;93.90;;;;;;5033568;28;20006;-62
2022/05/14 09:04:01;;;;;;;;;;;21.60;95.30;;;;;;5037321;28;19910;-62
2022/05/14 09:06:27;;;;;;;;;;;21.60;95.50;;;;;;5033352;28;20391;-62
2022/05/14 09:08:52;;;;;;;;;;;22.20;94.80;;;;;;5034294;28;19909;-62
2022/05/14 09:11:20;;;;;;;;;;;22.10;94.60;;;;;;5037218;28;19912;-62
2022/05/14 09:13:48;;;;;;;;;;;22.10;94.00;;;;;;5053178;28;20434;-62
2022/05/14 09:16:26;;;;;;;;;;;22.10;94.40;;;;;;5037123;28;20499;-62
2022/05/14 09:18:53;;;;;;;;;;;22.70;94.10;;;;;;5039127;28;19913;-62
2022/05/14 09:21:30;;;;;;;;;;;23.60;92.30;;;;;;5034815;28;19920;-62
2022/05/14 09:23:56;;;;;;;;;;;22.50;92.50;;;;;;5040057;28;19959;-62
2022/05/14 09:26:25;;;;;;;;;;;22.60;93.30;;;;;;5037286;28;19917;-62
2022/05/14 09:28:52;;;;;;;;;;;22.80;92.40;;;;;;5036473;28;19913;-62
2022/05/14 09:31:36;;;;;;;;;;;22.20;93.00;;;;;;5032193;28;19920;-62
2022/05/14 09:34:04;;;;;;;;;;;21.90;92.80;;;;;;5038177;28;19925;-62
2022/05/14 09:36:30;;;;;;;;;;;22.10;93.60;;;;;;5052065;28;19948;-62
2022/05/14 09:39:19;;;;;;;;;;;23.00;92.20;;;;;;5039143;28;19950;-62
2022/05/14 09:41:46;;;;;;;;;;;23.50;91.60;;;;;;5039980;28;20409;-63
2022/05/14 09:44:13;;;;;;;;;;;24.70;88.90;;;;;;5043606;28;19917;-63
2022/05/14 09:46:38;;;;;;;;;;;25.10;87.30;;;;;;5041629;28;19912;-63
2022/05/14 09:49:05;;;;;;;;;;;25.30;85.70;;;;;;5042155;28;19958;-63
2022/05/14 09:51:36;;;;;;;;;;;26.40;84.20;;;;;;5043416;28;19913;-63
2022/05/14 09:54:16;;;;;;;;;;;24.80;82.30;;;;;;5037113;28;19917;-63
2022/05/14 09:57:00;;;;;;;;;;;25.10;84.10;;;;;;5032292;28;19913;-62
2022/05/14 09:59:32;;;;;;;;;;;24.80;80.50;;;;;;5035282;28;19916;-63
2022/05/14 10:02:01;;;;;;;;;;;24.90;79.80;;;;;;5037472;28;19959;-63
2022/05/14 10:04:46;;;;;;;;;;;24.90;79.10;;;;;;5043182;28;19919;-62
2022/05/14 10:07:15;;;;;;;;;;;23.70;81.70;;;;;;5035879;28;19917;-62
2022/05/14 10:09:53;;;;;;;;;;;22.80;84.00;;;;;;5043010;28;20352;-62
2022/05/14 10:12:28;;;;;;;;;;;23.30;84.00;;;;;;5044237;28;20015;-62
2022/05/14 10:15:01;;;;;;;;;;;22.90;84.90;;;;;;5041036;28;20011;-62
2022/05/14 10:17:33;;;;;;;;;;;23.20;85.30;;;;;;5039985;28;19924;-63
2022/05/14 10:20:20;;;;;;;;;;;23.80;82.70;;;;;;5037718;28;19913;-63
2022/05/14 10:28:43;;;;;;;;;;;25.70;78.70;;;;;;5039318;28;19919;-63
2022/05/14 10:31:14;;;;;;;;;;;26.00;79.20;;;;;;5040537;28;19928;-63
2022/05/14 10:33:41;;;;;;;;;;;26.70;77.50;;;;;;5051065;28;19920;-63
2022/05/14 10:36:07;;;;;;;;;;;26.40;77.00;;;;;;5036572;28;19920;-63
2022/05/14 10:38:56;;;;;;;;;;;26.60;75.60;;;;;;5047896;28;20003;-63
2022/05/14 10:41:37;;;;;;;;;;;25.70;77.10;;;;;;5039621;28;20265;-63
2022/05/14 10:44:05;;;;;;;;;;;26.10;76.70;;;;;;5044695;28;20289;-63
2022/05/14 10:46:34;;;;;;;;;;;27.10;74.40;;;;;;5037802;28;20198;-63
2022/05/14 10:49:03;;;;;;;;;;;26.80;74.40;;;;;;5031344;28;19917;-63
2022/05/14 10:51:29;;;;;;;;;;;26.80;73.50;;;;;;5037330;28;19952;-63
2022/05/14 10:53:55;;;;;;;;;;;26.60;74.50;;;;;;5036041;28;19963;-63
2022/05/14 10:56:24;;;;;;;;;;;27.30;74.10;;;;;;5045054;28;19913;-63
2022/05/14 10:59:08;;;;;;;;;;;26.80;73.90;;;;;;5040580;28;19939;-63
2022/05/14 11:01:36;;;;;;;;;;;26.60;73.20;;;;;;5035787;28;19912;-63
2022/05/14 11:04:22;;;;;;;;;;;26.70;73.90;;;;;;5043436;28;20277;-63
2022/05/14 11:06:55;;;;;;;;;;;26.30;73.10;;;;;;5043759;28;20369;-63
2022/05/14 11:09:30;;;;;;;;;;;25.40;76.00;;;;;;5039308;28;20373;-63
2022/05/14 11:11:59;;;;;;;;;;;24.70;75.30;;;;;;5046287;28;19913;-63
2022/05/14 11:14:35;;;;;;;;;;;24.10;77.50;;;;;;5039280;28;20299;-63
2022/05/14 11:17:00;;;;;;;;;;;23.80;78.80;;;;;;5036867;28;19967;-63
2022/05/14 11:19:31;;;;;;;;;;;24.20;78.70;;;;;;5040120;28;19921;-63
2022/05/14 11:21:57;;;;;;;;;;;25.00;76.60;;;;;;5038002;28;19919;-63
2022/05/14 11:24:35;;;;;;;;;;;23.40;80.10;;;;;;5046160;28;20346;-63
2022/05/14 11:27:00;;;;;;;;;;;24.20;79.20;;;;;;5034652;28;19915;-63
2022/05/14 11:29:27;;;;;;;;;;;25.50;74.80;;;;;;5043339;28;20338;-63
2022/05/14 11:31:55;;;;;;;;;;;26.00;77.00;;;;;;5036761;28;19967;-63
2022/05/14 11:34:22;;;;;;;;;;;26.70;72.70;;;;;;5050591;28;19973;-62
2022/05/14 11:36:56;;;;;;;;;;;27.40;72.50;;;;;;5037318;28;19966;-62
2022/05/14 11:39:24;;;;;;;;;;;27.40;73.50;;;;;;5042516;28;20271;-62
2022/05/14 11:41:51;;;;;;;;;;;27.20;72.10;;;;;;5041599;28;19921;-62
2022/05/14 11:44:45;;;;;;;;;;;28.50;71.00;;;;;;5049275;28;19913;-62
2022/05/14 11:47:43;;;;;;;;;;;26.80;70.90;;;;;;5028469;28;19913;-62
2022/05/14 11:50:10;;;;;;;;;;;27.00;71.60;;;;;;5025116;28;19917;-62
2022/05/14 11:52:55;;;;;;;;;;;26.90;72.40;;;;;;5036654;28;20440;-62
2022/05/14 11:55:22;;;;;;;;;;;27.40;71.40;;;;;;5042171;28;19951;-63
2022/05/14 11:57:51;;;;;;;;;;;28.80;69.30;;;;;;5035983;28;19960;-63
2022/05/14 12:00:18;;;;;;;;;;;27.70;70.50;;;;;;5035551;28;20135;-62
2022/05/14 12:02:46;;;;;;;;;;;27.20;70.60;;;;;;5038734;28;19967;-62
2022/05/14 12:05:15;;;;;;;;;;;26.10;72.30;;;;;;5029733;28;19950;-62
2022/05/14 12:07:43;;;;;;;;;;;26.50;72.20;;;;;;5027855;28;19913;-62
2022/05/14 12:10:27;;;;;;;;;;;27.70;72.70;;;;;;5035902;28;19958;-62
2022/05/14 12:13:06;;;;;;;;;;;28.40;68.50;;;;;;5029992;28;19921;-62
2022/05/14 12:15:32;;;;;;;;;;;28.10;67.80;;;;;;5027940;28;19924;-62
2022/05/14 12:17:58;;;;;;;;;;;26.90;69.40;;;;;;5039889;28;19925;-62
2022/05/14 12:20:25;;;;;;;;;;;26.00;69.90;;;;;;5047525;28;20004;-62
2022/05/14 12:23:01;;;;;;;;;;;27.10;70.00;;;;;;5033105;28;19939;-62
2022/05/14 12:25:53;;;;;;;;;;;27.50;68.80;;;;;;5028073;28;20308;-62
2022/05/14 12:28:29;;;;;;;;;;;28.20;68.10;;;;;;5030816;28;19917;-63
2022/05/14 12:34:10;;;;;;;;;;;28.10;67.40;;;;;;5026572;28;19932;-63
2022/05/14 12:36:39;;;;;;;;;;;28.30;68.00;;;;;;5027491;28;19924;-62
2022/05/14 12:39:12;;;;;;;;;;;27.80;69.40;;;;;;5030581;28;19913;-62
2022/05/14 12:41:41;;;;;;;;;;;26.60;69.90;;;;;;5028207;28;20040;-63
2022/05/14 12:44:10;;;;;;;;;;;26.10;70.80;;;;;;5032456;28;19982;-63
2022/05/14 12:46:43;;;;;;;;;;;26.00;71.60;;;;;;5032751;28;19913;-62
2022/05/14 12:49:16;;;;;;;;;;;26.80;69.70;;;;;;5044617;28;19921;-63
2022/05/14 12:51:46;;;;;;;;;;;28.10;68.00;;;;;;5032190;28;19917;-63
2022/05/14 12:54:22;;;;;;;;;;;28.60;66.00;;;;;;5032685;28;19921;-63
2022/05/14 12:56:49;;;;;;;;;;;29.70;65.70;;;;;;5039776;28;19920;-63
2022/05/14 12:59:15;;;;;;;;;;;28.90;65.80;;;;;;5041436;28;19919;-63
2022/05/14 13:01:40;;;;;;;;;;;29.60;64.80;;;;;;5036584;28;19912;-63
2022/05/14 13:04:08;;;;;;;;;;;29.70;64.40;;;;;;5039255;28;20293;-63
2022/05/14 13:06:34;;;;;;;;;;;29.70;64.20;;;;;;5046777;28;20035;-63
2022/05/14 13:09:05;;;;;;;;;;;30.80;63.20;;;;;;5038497;28;19971;-63
2022/05/14 13:11:31;;;;;;;;;;;29.60;63.50;;;;;;5038131;28;19975;-63
2022/05/14 13:13:59;;;;;;;;;;;28.10;66.20;;;;;;5043248;28;20601;-63
2022/05/14 13:16:26;;;;;;;;;;;26.60;68.40;;;;;;5040909;28;19913;-63
2022/05/14 13:18:56;;;;;;;;;;;27.20;70.40;;;;;;5041441;28;19967;-63
2022/05/14 13:21:23;;;;;;;;;;;28.50;66.30;;;;;;5044841;28;19913;-63
2022/05/14 13:23:53;;;;;;;;;;;28.90;66.20;;;;;;5041072;28;19920;-63
2022/05/14 13:26:33;;;;;;;;;;;29.40;65.20;;;;;;5044192;28;20283;-63
2022/05/14 13:29:11;;;;;;;;;;;26.80;67.70;;;;;;5035684;28;20280;-62
2022/05/14 13:31:36;;;;;;;;;;;26.20;68.70;;;;;;5037864;28;19928;-62
2022/05/14 13:37:07;;;;;;;;;;;26.70;67.80;;;;;;5041962;28;19917;-63
2022/05/14 13:37:10;;;;;;;;;;;26.90;67.90;;;;;;5023898;28;19924;-63
2022/05/14 13:39:44;;;;;;;;;;;26.10;68.60;;;;;;5044098;28;20602;-62
2022/05/14 13:42:12;;;;;;;;;;;26.50;66.80;;;;;;5029556;28;19991;-62
2022/05/14 13:44:38;;;;;;;;;;;25.80;67.80;;;;;;5035614;28;20027;-62
2022/05/14 13:47:03;;;;;;;;;;;26.10;67.90;;;;;;5039776;28;19995;-63
2022/05/14 13:49:31;;;;;;;;;;;28.30;64.60;;;;;;5041201;28;20047;-63
2022/05/14 13:51:59;;;;;;;;;;;29.00;63.90;;;;;;5044618;28;19927;-63
2022/05/14 13:54:38;;;;;;;;;;;27.50;65.00;;;;;;5041051;28;19947;-63
2022/05/14 13:57:05;;;;;;;;;;;28.40;64.30;;;;;;5047309;28;19917;-62
2022/05/14 13:59:32;;;;;;;;;;;29.10;63.40;;;;;;5035400;28;19955;-62
2022/05/14 14:02:07;;;;;;;;;;;30.40;62.50;;;;;;5030505;28;20029;-62
2022/05/14 14:04:34;;;;;;;;;;;29.60;62.80;;;;;;5036670;28;19982;-63
2022/05/14 14:07:03;;;;;;;;;;;28.40;65.20;;;;;;5032450;28;19913;-63
2022/05/14 14:09:29;;;;;;;;;;;28.80;63.70;;;;;;5036465;28;19917;-63
2022/05/14 14:11:55;;;;;;;;;;;29.90;63.20;;;;;;5035101;28;19926;-62
2022/05/14 14:14:21;;;;;;;;;;;29.50;62.90;;;;;;5032172;28;19921;-62
2022/05/14 14:16:46;;;;;;;;;;;30.00;61.70;;;;;;5035606;28;19948;-63
2022/05/14 14:19:12;;;;;;;;;;;29.90;62.80;;;;;;5032545;28;20532;-63
2022/05/14 14:21:38;;;;;;;;;;;31.20;60.60;;;;;;5051087;28;19927;-62
2022/05/14 14:24:05;;;;;;;;;;;28.20;63.00;;;;;;5034870;28;19909;-63
2022/05/14 14:26:31;;;;;;;;;;;29.10;62.80;;;;;;5041587;28;20112;-63
2022/05/14 14:28:59;;;;;;;;;;;28.40;61.80;;;;;;5039089;28;19920;-63
2022/05/14 14:31:25;;;;;;;;;;;29.40;61.90;;;;;;5049265;28;19975;-63
2022/05/14 14:33:50;;;;;;;;;;;28.40;62.80;;;;;;5034374;28;19921;-63
2022/05/14 14:36:16;;;;;;;;;;;29.10;62.90;;;;;;5036834;28;20426;-63
2022/05/14 14:38:41;;;;;;;;;;;28.60;62.70;;;;;;5036427;28;19913;-63
2022/05/14 14:41:07;;;;;;;;;;;30.30;61.50;;;;;;5035348;28;20031;-63
2022/05/14 14:43:32;;;;;;;;;;;31.00;59.60;;;;;;5032898;28;19991;-63
2022/05/14 14:45:58;;;;;;;;;;;30.40;59.80;;;;;;5040906;28;19917;-63
2022/05/14 14:48:27;;;;;;;;;;;29.10;61.90;;;;;;5036642;28;19948;-63
2022/05/14 14:50:52;;;;;;;;;;;30.10;59.80;;;;;;5051497;28;19960;-63